createdAt,value
2023-03-26T00:00:14.987Z,4.84
2023-03-26T00:01:16.272Z,4.83
2023-03-26T00:02:14.876Z,4.83
2023-03-26T00:03:16.134Z,4.84
2023-03-26T00:04:15.022Z,4.87
2023-03-26T00:05:14.931Z,4.83
2023-03-26T00:06:15.867Z,4.81
2023-03-26T00:07:15.016Z,4.81
2023-03-26T00:08:15.940Z,4.78
2023-03-26T00:09:15.976Z,4.73
2023-03-26T00:10:14.993Z,4.69
2023-03-26T00:11:15.992Z,4.69
2023-03-26T00:12:14.991Z,4.69
2023-03-26T00:13:15.010Z,4.66
2023-03-26T00:14:15.041Z,4.69
2023-03-26T00:15:15.043Z,4.66
2023-03-26T00:16:16.906Z,4.63
2023-03-26T00:17:15.099Z,4.64
2023-03-26T00:18:15.110Z,4.67
2023-03-26T00:19:15.325Z,4.73
2023-03-26T00:20:15.169Z,4.72
2023-03-26T00:21:16.358Z,4.71
2023-03-26T00:22:15.197Z,4.74
2023-03-26T00:23:15.212Z,4.77
2023-03-26T00:24:15.579Z,4.75
2023-03-26T00:25:15.375Z,4.73
2023-03-26T00:26:15.778Z,4.73
2023-03-26T00:27:15.317Z,4.74
2023-03-26T00:28:15.280Z,4.73
2023-03-26T00:29:15.281Z,4.69
2023-03-26T00:30:15.801Z,4.71
2023-03-26T00:31:15.454Z,4.64
2023-03-26T00:32:15.348Z,4.59
2023-03-26T00:33:15.653Z,4.6
2023-03-26T00:34:15.393Z,4.63
2023-03-26T00:35:15.398Z,4.6
2023-03-26T00:36:16.053Z,4.61
2023-03-26T00:37:15.503Z,4.62
2023-03-26T00:38:15.561Z,4.62
2023-03-26T00:39:15.506Z,4.61
2023-03-26T00:40:15.481Z,4.57
2023-03-26T00:41:17.131Z,4.5
2023-03-26T00:42:15.547Z,4.58
2023-03-26T00:43:15.487Z,4.62
2023-03-26T00:44:15.506Z,4.58
2023-03-26T00:45:15.578Z,4.53
2023-03-26T00:46:16.107Z,4.49
2023-03-26T00:47:15.604Z,4.55
2023-03-26T00:48:16.235Z,4.58
2023-03-26T00:49:15.611Z,4.56
2023-03-26T00:50:15.725Z,4.52
2023-03-26T00:51:16.090Z,4.49
2023-03-26T00:52:15.663Z,4.43
2023-03-26T00:53:16.558Z,4.41
2023-03-26T00:54:15.774Z,4.38
2023-03-26T00:55:15.684Z,4.4
2023-03-26T00:56:16.164Z,4.43
2023-03-26T00:57:25.717Z,4.35
2023-03-26T00:58:19.716Z,4.28
2023-03-26T00:59:19.626Z,4.11
2023-03-26T01:00:27.356Z,4.05
2023-03-26T01:01:25.645Z,3.9
2023-03-26T01:02:24.062Z,3.8
2023-03-26T01:03:27.456Z,3.68
2023-03-26T01:04:29.364Z,3.74
2023-03-26T01:05:40.207Z,3.86
2023-03-26T01:06:30.823Z,3.79
2023-03-26T01:07:27.463Z,3.84
2023-03-26T01:09:31.845Z,3.49
2023-03-26T01:10:28.766Z,3.48
2023-03-26T01:11:30.632Z,3.5
2023-03-26T01:12:30.911Z,3.41
2023-03-26T01:13:30.529Z,3.46
2023-03-26T01:14:29.231Z,3.59
2023-03-26T01:15:28.755Z,3.66
2023-03-26T01:17:30.794Z,3.14
2023-03-26T01:18:31.987Z,3.39
2023-03-26T01:20:33.823Z,3.36
2023-03-26T01:21:31.061Z,3.23
2023-03-26T01:22:31.352Z,3.15
2023-03-26T01:23:39.498Z,3.15
2023-03-26T01:24:31.320Z,2.99
2023-03-26T01:25:35.924Z,2.95
2023-03-26T01:28:37.998Z,2.87
2023-03-26T01:35:58.465Z,2.66
2023-03-26T01:37:07.857Z,2.53
2023-03-26T01:38:07.437Z,2.54
2023-03-26T01:42:19.388Z,2.45
2023-03-26T01:45:23.577Z,2.27
2023-03-26T01:46:20.725Z,2.08
2023-03-26T01:47:20.798Z,2.14
2023-03-26T01:48:20.323Z,2.2
2023-03-26T01:49:20.095Z,2.25
2023-03-26T01:50:20.362Z,2.3
2023-03-26T01:52:23.938Z,2.32
2023-03-26T01:53:24.686Z,2.41
2023-03-26T01:54:27.853Z,2.54
2023-03-26T01:55:28.705Z,2.47
2023-03-26T01:58:42.294Z,2.69
2023-03-26T02:03:50.749Z,2.65
2023-03-26T02:04:54.614Z,2.74
2023-03-26T02:05:57.121Z,2.81
2023-03-26T02:09:02.034Z,3.06
2023-03-26T02:10:01.114Z,3.07
2023-03-26T02:11:00.291Z,3.15
2023-03-26T02:11:59.354Z,3.18
2023-03-26T02:12:58.884Z,3.32
2023-03-26T02:13:59.080Z,3.07
2023-03-26T02:14:59.708Z,3.04
2023-03-26T02:16:02.801Z,3.27
2023-03-26T02:16:59.654Z,3.31
2023-03-26T02:17:59.610Z,3.3
2023-03-26T02:18:59.527Z,3.29
2023-03-26T02:19:59.507Z,3.32
2023-03-26T02:20:59.454Z,3.16
2023-03-26T02:21:59.513Z,3.17
2023-03-26T02:22:59.526Z,3.3
2023-03-26T02:23:59.729Z,2.96
2023-03-26T02:24:59.601Z,2.81
2023-03-26T02:25:59.644Z,2.72
2023-03-26T02:26:59.663Z,2.77
2023-03-26T02:27:59.642Z,2.85
2023-03-26T02:29:00.146Z,2.7
2023-03-26T02:29:59.682Z,2.64
2023-03-26T02:30:59.894Z,2.52
2023-03-26T02:31:59.718Z,2.57
2023-03-26T02:32:59.811Z,2.61
2023-03-26T02:33:59.716Z,2.66
2023-03-26T02:34:59.777Z,2.86
2023-03-26T02:35:59.906Z,3.15
2023-03-26T02:37:00.169Z,3.15
2023-03-26T02:37:59.789Z,2.85
2023-03-26T02:38:59.873Z,2.7
2023-03-26T02:40:00.255Z,2.65
2023-03-26T02:40:59.860Z,2.66
2023-03-26T02:41:59.992Z,2.65
2023-03-26T02:42:59.857Z,2.6
2023-03-26T02:44:00.010Z,2.68
2023-03-26T02:44:59.965Z,2.63
2023-03-26T02:46:00.079Z,2.47
2023-03-26T02:47:00.332Z,2.61
2023-03-26T02:48:00.039Z,2.68
2023-03-26T02:49:00.026Z,2.69
2023-03-26T02:50:00.047Z,2.73
2023-03-26T02:51:00.802Z,2.75
2023-03-26T02:52:00.503Z,2.85
2023-03-26T02:53:00.038Z,2.8
2023-03-26T02:54:00.819Z,2.87
2023-03-26T02:55:00.062Z,2.84
2023-03-26T02:56:00.300Z,2.85
2023-03-26T02:57:00.943Z,2.84
2023-03-26T02:58:00.653Z,2.66
2023-03-26T02:59:00.654Z,2.6
2023-03-26T03:00:00.856Z,2.72
2023-03-26T03:01:00.817Z,2.79
2023-03-26T03:02:00.766Z,2.76
2023-03-26T03:03:01.089Z,2.75
2023-03-26T03:04:01.892Z,2.95
2023-03-26T03:05:00.712Z,3.02
2023-03-26T03:06:00.761Z,2.94
2023-03-26T03:07:00.828Z,3.12
2023-03-26T03:08:00.866Z,3.13
2023-03-26T03:09:00.884Z,3.09
2023-03-26T03:10:00.862Z,2.94
2023-03-26T03:12:05.847Z,3.04
2023-03-26T03:13:05.651Z,3.04
2023-03-26T03:14:05.757Z,3.1
2023-03-26T03:15:06.244Z,3.13
2023-03-26T03:16:06.105Z,3
2023-03-26T03:17:05.936Z,2.96
2023-03-26T03:18:05.967Z,2.88
2023-03-26T03:19:05.740Z,2.93
2023-03-26T03:20:06.728Z,3.06
2023-03-26T03:21:05.917Z,3.16
2023-03-26T03:22:05.820Z,3.21
2023-03-26T03:23:05.814Z,3.19
2023-03-26T03:24:06.137Z,3.2
2023-03-26T03:25:06.263Z,3.19
2023-03-26T03:26:10.045Z,3.2
2023-03-26T03:27:06.702Z,3.21
2023-03-26T03:28:06.739Z,3.14
2023-03-26T03:29:06.734Z,3.2
2023-03-26T03:30:07.949Z,3.24
2023-03-26T03:31:06.770Z,3.22
2023-03-26T03:32:06.804Z,3.22
2023-03-26T03:33:06.824Z,3.24
2023-03-26T03:34:06.845Z,3.31
2023-03-26T03:35:07.251Z,3.33
2023-03-26T03:36:10.197Z,3.25
2023-03-26T03:37:11.604Z,3.31
2023-03-26T03:38:11.777Z,3.22
2023-03-26T03:39:11.709Z,3.25
2023-03-26T03:40:12.077Z,3.15
2023-03-26T03:41:11.697Z,3.1
2023-03-26T03:42:11.785Z,3.11
2023-03-26T03:43:11.724Z,3.05
2023-03-26T03:44:11.754Z,3.01
2023-03-26T03:45:12.071Z,3.07
2023-03-26T03:46:11.881Z,2.99
2023-03-26T03:47:11.738Z,2.99
2023-03-26T03:48:11.780Z,2.89
2023-03-26T03:49:11.791Z,2.79
2023-03-26T03:50:11.867Z,2.69
2023-03-26T03:51:11.881Z,2.5
2023-03-26T03:52:11.815Z,2.32
2023-03-26T03:53:11.872Z,2.48
2023-03-26T03:54:11.865Z,2.39
2023-03-26T03:55:11.922Z,2.23
2023-03-26T03:56:11.989Z,2.34
2023-03-26T03:57:12.028Z,2.38
2023-03-26T03:58:11.905Z,2.41
2023-03-26T03:59:11.956Z,2.54
2023-03-26T04:00:12.443Z,2.64
2023-03-26T04:01:12.309Z,2.58
2023-03-26T04:02:12.064Z,2.6
2023-03-26T04:03:12.136Z,2.69
2023-03-26T04:04:12.351Z,2.59
2023-03-26T04:05:12.474Z,2.52
2023-03-26T04:06:13.012Z,2.48
2023-03-26T04:07:12.061Z,2.48
2023-03-26T04:08:12.107Z,2.38
2023-03-26T04:09:12.108Z,2.29
2023-03-26T04:10:14.567Z,2.38
2023-03-26T04:11:12.896Z,2.5
2023-03-26T04:12:12.219Z,2.39
2023-03-26T04:13:12.982Z,2.46
2023-03-26T04:14:12.251Z,2.41
2023-03-26T04:15:12.173Z,2.22
2023-03-26T04:16:12.285Z,2.07
2023-03-26T04:17:12.336Z,2.11
2023-03-26T04:18:12.249Z,2.14
2023-03-26T04:19:12.225Z,2.24
2023-03-26T04:20:12.907Z,2.24
2023-03-26T04:21:12.493Z,2.08
2023-03-26T04:22:12.330Z,2.03
2023-03-26T04:23:13.313Z,1.96
2023-03-26T04:24:12.293Z,2.32
2023-03-26T04:25:12.715Z,2.01
2023-03-26T04:26:15.339Z,1.92
2023-03-26T04:27:16.915Z,2.04
2023-03-26T04:28:22.164Z,2.28
2023-03-26T04:29:14.041Z,2.31
2023-03-26T04:30:18.607Z,2.25
2023-03-26T04:31:19.279Z,2.04
2023-03-26T04:32:20.107Z,2.22
2023-03-26T04:33:16.820Z,2.57
2023-03-26T04:34:23.326Z,2.65
2023-03-26T04:35:20.226Z,2.46
2023-03-26T04:36:22.684Z,2.47
2023-03-26T04:37:25.473Z,2.3
2023-03-26T04:38:22.508Z,2.21
2023-03-26T04:39:22.337Z,2.39
2023-03-26T04:40:22.505Z,2.36
2023-03-26T04:41:22.143Z,2.42
2023-03-26T04:42:22.133Z,2.48
2023-03-26T04:43:22.176Z,2.47
2023-03-26T04:44:22.266Z,2.53
2023-03-26T04:45:22.734Z,2.22
2023-03-26T04:46:22.386Z,2.53
2023-03-26T04:47:22.410Z,2.67
2023-03-26T04:48:22.446Z,2.76
2023-03-26T04:49:22.278Z,2.8
2023-03-26T04:50:22.297Z,2.64
2023-03-26T04:51:25.649Z,2.54
2023-03-26T04:52:22.687Z,2.63
2023-03-26T04:53:22.804Z,2.83
2023-03-26T04:54:22.640Z,2.82
2023-03-26T04:55:31.076Z,2.91
2023-03-26T04:58:28.594Z,3.06
2023-03-26T04:59:30.275Z,3.14
2023-03-26T05:00:28.882Z,3.08
2023-03-26T05:01:29.062Z,3.22
2023-03-26T05:02:28.673Z,3.29
2023-03-26T05:03:28.661Z,3.3
2023-03-26T05:04:28.940Z,3.47
2023-03-26T05:05:29.029Z,3.44
2023-03-26T05:06:28.774Z,3.44
2023-03-26T05:07:28.688Z,3.58
2023-03-26T05:08:28.703Z,3.59
2023-03-26T05:09:28.731Z,3.62
2023-03-26T05:10:28.896Z,3.69
2023-03-26T05:11:28.779Z,3.68
2023-03-26T05:12:29.102Z,3.66
2023-03-26T05:13:28.768Z,3.72
2023-03-26T05:14:28.812Z,3.74
2023-03-26T05:15:28.821Z,3.74
2023-03-26T05:16:29.396Z,3.75
2023-03-26T05:17:28.946Z,3.75
2023-03-26T05:18:28.969Z,3.74
2023-03-26T05:19:28.830Z,3.83
2023-03-26T05:20:30.264Z,3.88
2023-03-26T05:21:28.872Z,3.9
2023-03-26T05:22:28.928Z,3.95
2023-03-26T05:23:28.956Z,3.99
2023-03-26T05:24:28.918Z,4
2023-03-26T05:25:28.985Z,4.03
2023-03-26T05:26:28.992Z,4.02
2023-03-26T05:27:28.988Z,4.05
2023-03-26T05:28:29.036Z,4.08
2023-03-26T05:29:28.984Z,4.1
2023-03-26T05:30:29.004Z,4.13
2023-03-26T05:31:29.020Z,4.15
2023-03-26T05:32:30.534Z,4.18
2023-03-26T05:33:29.253Z,4.15
2023-03-26T05:34:29.055Z,4.14
2023-03-26T05:35:29.081Z,4.17
2023-03-26T05:36:29.103Z,4.18
2023-03-26T05:37:29.440Z,4.19
2023-03-26T05:38:29.699Z,4.2
2023-03-26T05:39:29.165Z,4.19
2023-03-26T05:40:29.128Z,4.21
2023-03-26T05:41:29.166Z,4.2
2023-03-26T05:42:29.156Z,4.2
2023-03-26T05:43:29.348Z,4.18
2023-03-26T05:44:29.524Z,4.17
2023-03-26T05:45:29.207Z,4.19
2023-03-26T05:46:29.242Z,4.18
2023-03-26T05:47:29.320Z,4.13
2023-03-26T05:48:29.283Z,4.14
2023-03-26T05:49:29.368Z,4.15
2023-03-26T05:50:29.317Z,4.16
2023-03-26T05:51:29.288Z,4.19
2023-03-26T05:52:29.318Z,4.17
2023-03-26T05:53:29.464Z,4.2
2023-03-26T05:54:29.475Z,4.14
2023-03-26T05:55:29.352Z,4.15
2023-03-26T05:56:29.362Z,4.19
2023-03-26T05:57:30.413Z,4.2
2023-03-26T05:58:30.796Z,4.19
2023-03-26T05:59:29.405Z,4.17
2023-03-26T06:00:29.420Z,4.17
2023-03-26T06:01:29.423Z,4.26
2023-03-26T06:02:29.481Z,4.27
2023-03-26T06:03:29.547Z,4.29
2023-03-26T06:04:29.562Z,4.28
2023-03-26T06:05:31.683Z,4.24
2023-03-26T06:06:31.143Z,4.21
2023-03-26T06:07:29.855Z,4.23
2023-03-26T06:08:29.891Z,4.28
2023-03-26T06:09:29.619Z,4.29
2023-03-26T06:10:30.219Z,4.34
2023-03-26T06:11:29.985Z,4.34
2023-03-26T06:12:29.560Z,4.36
2023-03-26T06:13:29.900Z,4.35
2023-03-26T06:14:29.587Z,4.4
2023-03-26T06:15:29.692Z,4.42
2023-03-26T06:16:29.659Z,4.42
2023-03-26T06:17:29.750Z,4.46
2023-03-26T06:18:29.795Z,4.53
2023-03-26T06:19:29.679Z,4.53
2023-03-26T06:20:29.726Z,4.56
2023-03-26T06:21:29.689Z,4.59
2023-03-26T06:22:29.707Z,4.59
2023-03-26T06:23:30.494Z,4.61
2023-03-26T06:24:30.252Z,4.62
2023-03-26T06:25:30.216Z,4.68
2023-03-26T06:26:30.171Z,4.75
2023-03-26T06:27:30.203Z,4.75
2023-03-26T06:28:30.245Z,4.8
2023-03-26T06:29:30.203Z,4.81
2023-03-26T06:30:30.230Z,4.86
2023-03-26T06:31:30.348Z,4.84
2023-03-26T06:32:30.289Z,4.81
2023-03-26T06:33:30.293Z,4.84
2023-03-26T06:34:30.372Z,4.85
2023-03-26T06:35:30.759Z,4.88
2023-03-26T06:36:30.351Z,4.88
2023-03-26T06:37:30.324Z,4.86
2023-03-26T06:38:30.324Z,4.86
2023-03-26T06:39:30.381Z,4.84
2023-03-26T06:40:30.524Z,4.81
2023-03-26T06:41:32.262Z,4.81
2023-03-26T06:43:06.488Z,4.81
2023-03-26T06:43:31.609Z,4.79
2023-03-26T06:44:31.637Z,4.81
2023-03-26T06:45:32.600Z,4.82
2023-03-26T06:46:31.715Z,4.81
2023-03-26T06:47:31.701Z,4.84
2023-03-26T06:48:31.656Z,4.85
2023-03-26T06:49:31.671Z,4.85
2023-03-26T06:50:31.661Z,4.88
2023-03-26T06:51:31.701Z,4.87
2023-03-26T06:52:31.817Z,4.87
2023-03-26T06:53:31.728Z,4.88
2023-03-26T06:54:31.728Z,4.91
2023-03-26T06:55:31.724Z,4.9
2023-03-26T06:56:31.770Z,4.89
2023-03-26T06:57:31.985Z,4.89
2023-03-26T06:58:31.775Z,4.96
2023-03-26T06:59:31.876Z,5.02
2023-03-26T07:00:31.856Z,5.02
2023-03-26T07:01:31.935Z,5.03
2023-03-26T07:02:31.958Z,5.01
2023-03-26T07:03:31.969Z,5
2023-03-26T07:04:31.875Z,5.04
2023-03-26T07:05:31.999Z,5.12
2023-03-26T07:06:32.030Z,5.16
2023-03-26T07:07:31.981Z,5.17
2023-03-26T07:08:31.932Z,5.2
2023-03-26T07:09:32.070Z,5.21
2023-03-26T07:10:32.156Z,5.28
2023-03-26T07:11:31.972Z,5.28
2023-03-26T07:12:32.128Z,5.3
2023-03-26T07:13:32.024Z,5.33
2023-03-26T07:14:32.094Z,5.38
2023-03-26T07:15:32.164Z,5.36
2023-03-26T07:16:32.076Z,5.44
2023-03-26T07:17:32.170Z,5.47
2023-03-26T07:18:32.287Z,5.51
2023-03-26T07:19:32.176Z,5.52
2023-03-26T07:20:32.759Z,5.55
2023-03-26T07:21:32.647Z,5.58
2023-03-26T07:22:32.341Z,5.59
2023-03-26T07:23:32.410Z,5.66
2023-03-26T07:24:32.391Z,5.69
2023-03-26T07:25:32.475Z,5.73
2023-03-26T07:29:48.550Z,5.92
2023-03-26T07:32:59.718Z,5.97
2023-03-26T07:34:58.589Z,5.98
2023-03-26T07:36:01.443Z,6.1
2023-03-26T07:41:12.991Z,6
2023-03-26T07:46:19.750Z,6.15
2023-03-26T07:47:23.092Z,6.23
2023-03-26T07:48:23.949Z,6.29
2023-03-26T07:49:20.478Z,6.3
2023-03-26T07:50:22.235Z,6.27
2023-03-26T07:51:20.483Z,6.31
2023-03-26T07:52:20.482Z,6.36
2023-03-26T07:53:20.670Z,6.48
2023-03-26T07:54:20.453Z,6.45
2023-03-26T07:55:20.695Z,6.44
2023-03-26T07:56:26.165Z,6.53
2023-03-26T08:00:32.418Z,6.53
2023-03-26T08:04:49.871Z,6.45
2023-03-26T08:05:56.961Z,6.43
2023-03-26T08:06:53.941Z,6.39
2023-03-26T08:07:58.701Z,6.37
2023-03-26T08:12:18.666Z,6.26
2023-03-26T08:13:19.629Z,6.23
2023-03-26T08:21:37.958Z,6.21
2023-03-26T08:22:38.495Z,6.1
2023-03-26T08:23:50.966Z,6.06
2023-03-26T08:24:42.694Z,6.1
2023-03-26T08:29:55.297Z,6.01
2023-03-26T08:30:52.447Z,5.99
2023-03-26T08:31:52.738Z,5.96
2023-03-26T08:33:52.634Z,6.13
2023-03-26T08:34:52.587Z,6.19
2023-03-26T08:35:52.663Z,6.29
2023-03-26T08:36:52.641Z,6.3
2023-03-26T08:37:52.784Z,6.4
2023-03-26T08:38:52.671Z,6.35
2023-03-26T08:39:53.224Z,6.47
2023-03-26T08:46:22.486Z,6.7
2023-03-26T09:39:34.876Z,7.49
2023-03-26T09:40:35.538Z,7.64
2023-03-26T09:41:37.350Z,7.64
2023-03-26T10:10:01.947Z,8.35
2023-03-26T10:15:04.132Z,8.39
2023-03-26T10:21:28.387Z,8.16
2023-03-26T10:44:25.177Z,8.91
2023-03-26T10:47:34.280Z,8.55
2023-03-26T10:52:48.406Z,8.83
2023-03-26T10:53:53.509Z,8.52
2023-03-26T10:55:59.456Z,8.57
2023-03-26T10:56:51.945Z,8.46
2023-03-26T10:57:55.672Z,8.41
2023-03-26T10:58:53.780Z,8.27
2023-03-26T10:59:54.964Z,8.02
2023-03-26T11:01:06.352Z,7.85
2023-03-26T11:03:59.856Z,7.82
2023-03-26T11:08:09.658Z,8.15
2023-03-26T11:10:20.557Z,8.03
2023-03-26T11:12:25.814Z,8.1
2023-03-26T11:26:56.193Z,8.01
2023-03-26T11:33:06.577Z,8.04
2023-03-26T11:34:06.169Z,8.1
2023-03-26T11:35:07.027Z,8.06
2023-03-26T11:36:07.101Z,8
2023-03-26T11:37:06.426Z,8.14
2023-03-26T11:38:05.481Z,8.18
2023-03-26T11:39:06.011Z,8.05
2023-03-26T11:40:09.877Z,8.01
2023-03-26T11:41:14.532Z,7.94
2023-03-26T11:42:12.701Z,7.97
2023-03-26T11:43:12.612Z,7.97
2023-03-26T11:45:16.578Z,7.96
2023-03-26T11:46:14.883Z,8.04
2023-03-26T11:47:15.691Z,8.1
2023-03-26T11:48:18.205Z,8.14
2023-03-26T11:49:17.487Z,8.11
2023-03-26T11:50:16.748Z,8.14
2023-03-26T11:51:18.401Z,8.12
2023-03-26T11:52:15.273Z,8.13
2023-03-26T11:53:16.512Z,8.3
2023-03-26T11:54:15.173Z,8.12
2023-03-26T11:55:15.043Z,8.08
2023-03-26T11:57:23.349Z,8.04
2023-03-26T11:59:29.983Z,8.18
2023-03-26T12:00:26.744Z,8.11
2023-03-26T12:01:28.071Z,8.28
2023-03-26T12:02:28.642Z,8.42
2023-03-26T12:03:26.245Z,8.38
2023-03-26T12:05:29.558Z,8.41
2023-03-26T12:06:30.057Z,8.42
2023-03-26T12:07:31.186Z,8.45
2023-03-26T12:08:38.744Z,8.55
2023-03-26T12:09:30.506Z,8.64
2023-03-26T12:10:34.610Z,8.68
2023-03-26T12:11:34.634Z,8.5
2023-03-26T12:12:33.812Z,8.31
2023-03-26T12:13:36.397Z,8.44
2023-03-26T12:14:34.713Z,8.25
2023-03-26T12:15:33.235Z,8.24
2023-03-26T12:16:34.344Z,8.27
2023-03-26T12:17:37.137Z,8.15
2023-03-26T12:18:34.150Z,8.16
2023-03-26T12:19:35.951Z,8.2
2023-03-26T12:20:34.932Z,8.05
2023-03-26T12:21:46.946Z,7.88
2023-03-26T12:22:40.270Z,7.84
2023-03-26T12:24:40.536Z,7.74
2023-03-26T12:25:40.579Z,7.7
2023-03-26T12:26:41.874Z,7.56
2023-03-26T12:28:45.608Z,7.48
2023-03-26T12:29:41.829Z,7.41
2023-03-26T12:30:43.244Z,7.31
2023-03-26T12:32:46.657Z,7.18
2023-03-26T12:33:44.102Z,7.12
2023-03-26T12:34:43.456Z,7.06
2023-03-26T12:35:43.440Z,7.06
2023-03-26T12:37:44.802Z,7.04
2023-03-26T12:38:44.641Z,7.04
2023-03-26T12:40:09.766Z,7.07
2023-03-26T12:40:47.177Z,7.08
2023-03-26T12:44:46.260Z,6.99
2023-03-26T12:44:52.619Z,6.97
2023-03-26T12:44:59.987Z,7.01
2023-03-26T12:46:20.720Z,6.92
2023-03-26T12:48:04.347Z,6.74
2023-03-26T12:49:05.426Z,6.72
2023-03-26T12:50:02.295Z,6.75
2023-03-26T12:51:13.418Z,6.85
2023-03-26T13:00:27.148Z,6.92
2023-03-26T13:06:59.240Z,6.91
2023-03-26T13:09:53.236Z,7.03
2023-03-26T13:11:53.907Z,6.95
2023-03-26T13:16:03.817Z,7.2
2023-03-26T13:25:39.433Z,7.21
2023-03-26T13:39:03.555Z,7.83
2023-03-26T13:41:14.527Z,7.96
2023-03-26T13:42:20.035Z,8.22
2023-03-26T13:46:26.209Z,8.33
2023-03-26T13:47:20.982Z,8.08
2023-03-26T13:48:20.959Z,8.41
2023-03-26T13:50:26.636Z,8.72
2023-03-26T13:51:23.595Z,8.77
2023-03-26T13:52:28.471Z,8.75
2023-03-26T13:53:27.479Z,8.71
2023-03-26T13:57:41.468Z,8.73
2023-03-26T13:59:41.942Z,8.72
2023-03-26T14:01:41.440Z,8.15
2023-03-26T14:02:40.907Z,8.3
2023-03-26T14:03:46.610Z,8.39
2023-03-26T14:04:46.558Z,8.63
2023-03-26T14:05:44.964Z,8.65
2023-03-26T14:06:52.473Z,8.36
2023-03-26T14:07:47.521Z,8.57
2023-03-26T14:08:48.544Z,8.77
2023-03-26T14:10:49.084Z,8.76
2023-03-26T14:15:57.713Z,8.61
2023-03-26T14:16:57.733Z,8.82
2023-03-26T14:18:01.313Z,8.86
2023-03-26T14:26:26.216Z,8.25
2023-03-26T14:35:52.356Z,8.1
2023-03-26T14:41:01.873Z,8.66
2023-03-26T14:42:02.652Z,8.61
2023-03-26T14:54:20.522Z,7.81
2023-03-26T15:17:34.539Z,7.13
2023-03-26T15:27:57.197Z,7.05
2023-03-26T15:41:39.338Z,6.71
2023-03-26T15:45:47.570Z,5.89
2023-03-26T15:46:54.351Z,5.87
2023-03-26T15:49:58.711Z,5.85
2023-03-26T15:58:18.807Z,5.79
2023-03-26T16:00:24.353Z,5.68
2023-03-26T16:02:35.967Z,5.68
2023-03-26T16:03:32.917Z,5.58
2023-03-26T16:11:57.624Z,5.66
2023-03-26T16:17:00.202Z,5.62
2023-03-26T16:22:11.621Z,5.55
2023-03-26T16:24:19.233Z,5.5
2023-03-26T16:29:23.485Z,5.42
2023-03-26T16:32:34.332Z,5.3
2023-03-26T16:33:37.653Z,5.27
2023-03-26T16:34:38.317Z,5.28
2023-03-26T16:36:36.987Z,5.15
2023-03-26T16:37:40.370Z,5.12
2023-03-26T16:39:42.461Z,4.98
2023-03-26T16:42:06.430Z,4.83
2023-03-26T16:48:01.818Z,4.98
2023-03-26T16:55:21.511Z,4.84
2023-03-26T16:57:25.376Z,4.78
2023-03-26T17:01:35.427Z,4.57
2023-03-26T17:02:31.759Z,4.56
2023-03-26T17:04:32.353Z,4.48
2023-03-26T17:05:36.553Z,4.42
2023-03-26T17:07:44.861Z,4.38
2023-03-26T17:09:51.328Z,4.37
2023-03-26T17:25:32.018Z,3.87
2023-03-26T17:26:34.632Z,3.89
2023-03-26T17:31:45.912Z,3.87
2023-03-26T17:32:55.000Z,3.91
2023-03-26T17:33:46.998Z,3.79
2023-03-26T17:34:59.642Z,3.64
2023-03-26T17:35:52.469Z,3.58
2023-03-26T17:36:58.272Z,3.63
2023-03-26T17:37:55.133Z,3.76
2023-03-26T17:38:59.331Z,3.77
2023-03-26T17:40:59.619Z,3.71
2023-03-26T17:43:09.073Z,3.27
2023-03-26T17:49:21.730Z,2.98
2023-03-26T17:55:23.008Z,3.23
2023-03-26T17:56:24.428Z,3.01
2023-03-26T17:58:34.638Z,3.02
2023-03-26T17:59:27.338Z,3
2023-03-26T18:02:34.564Z,2.93
2023-03-26T18:03:34.561Z,2.85
2023-03-26T18:04:36.287Z,2.79
2023-03-26T18:05:33.491Z,2.71
2023-03-26T18:17:01.606Z,2.64
2023-03-26T18:21:13.038Z,2.41
2023-03-26T18:22:16.119Z,2.34
2023-03-26T18:23:20.194Z,2.28
2023-03-26T18:28:34.678Z,2.07
2023-03-26T18:29:32.368Z,2.29
2023-03-26T18:30:31.161Z,1.95
2023-03-26T18:31:31.304Z,2.07
2023-03-26T18:32:31.708Z,1.99
2023-03-26T18:33:40.763Z,2.13
2023-03-26T18:34:33.220Z,2.09
2023-03-26T18:36:36.192Z,1.99
2023-03-26T18:37:36.368Z,1.9
2023-03-26T18:38:38.526Z,1.98
2023-03-26T18:39:39.670Z,2.09
2023-03-26T18:40:43.290Z,2.11
2023-03-26T18:41:40.354Z,2.24
2023-03-26T18:42:40.154Z,2.3
2023-03-26T18:43:44.614Z,2.29
2023-03-26T18:44:41.152Z,2.19
2023-03-26T18:45:41.276Z,2.25
2023-03-26T18:46:41.804Z,2.42
2023-03-26T18:47:41.158Z,2.4
2023-03-26T18:48:41.608Z,2.43
2023-03-26T18:49:45.581Z,2.45
2023-03-26T18:50:41.909Z,2.58
2023-03-26T18:51:54.090Z,2.44
2023-03-26T18:52:44.166Z,2.49
2023-03-26T18:53:47.666Z,2.5
2023-03-26T18:54:47.958Z,2.47
2023-03-26T18:55:44.648Z,2.38
2023-03-26T18:56:46.943Z,2.53
2023-03-26T18:57:44.642Z,2.48
2023-03-26T18:58:49.427Z,2.44
2023-03-26T18:59:48.417Z,2.39
2023-03-26T19:00:46.293Z,2.33
2023-03-26T19:01:47.622Z,2.31
2023-03-26T19:02:50.632Z,2.16
2023-03-26T19:03:47.907Z,2.16
2023-03-26T19:04:48.536Z,2.3
2023-03-26T19:05:48.014Z,2.29
2023-03-26T19:06:47.723Z,2.31
2023-03-26T19:07:47.716Z,2.33
2023-03-26T19:08:47.740Z,2.2
2023-03-26T19:09:48.004Z,2.17
2023-03-26T19:10:47.662Z,2.14
2023-03-26T19:11:48.881Z,2.09
2023-03-26T19:12:54.643Z,2.03
2023-03-26T19:14:01.211Z,2.02
2023-03-26T19:15:04.262Z,2.11
2023-03-26T19:15:56.114Z,2.11
2023-03-26T19:16:59.477Z,2.23
2023-03-26T19:17:58.181Z,2.17
2023-03-26T19:18:58.497Z,2.17
2023-03-26T19:19:57.427Z,2.08
2023-03-26T19:21:00.393Z,2.02
2023-03-26T19:21:59.143Z,2.04
2023-03-26T19:22:57.485Z,2.13
2023-03-26T19:23:57.274Z,2.14
2023-03-26T19:24:59.554Z,2.21
2023-03-26T19:25:58.114Z,2.22
2023-03-26T19:26:57.835Z,2.29
2023-03-26T19:27:57.195Z,2.3
2023-03-26T19:28:57.745Z,2.3
2023-03-26T19:29:57.336Z,2.25
2023-03-26T19:30:59.060Z,1.99
2023-03-26T19:33:15.391Z,1.88
2023-03-26T19:34:03.577Z,1.89
2023-03-26T19:35:02.169Z,2.08
2023-03-26T19:36:15.594Z,2.22
2023-03-26T19:37:03.925Z,2.2
2023-03-26T19:38:12.096Z,2.22
2023-03-26T19:39:10.737Z,2.38
2023-03-26T19:40:18.648Z,2.48
2023-03-26T19:41:21.234Z,2.56
2023-03-26T19:42:19.828Z,2.38
2023-03-26T19:43:17.064Z,2.4
2023-03-26T19:44:20.934Z,2.38
2023-03-26T19:45:18.835Z,2.36
2023-03-26T19:46:18.147Z,2.39
2023-03-26T19:47:29.052Z,2.43
2023-03-26T19:48:22.271Z,2.5
2023-03-26T19:50:30.428Z,2.54
2023-03-26T19:53:34.162Z,2.62
2023-03-26T19:55:35.392Z,2.53
2023-03-26T19:56:35.426Z,2.6
2023-03-26T19:57:35.886Z,2.56
2023-03-26T19:58:35.560Z,2.59
2023-03-26T19:59:35.369Z,2.5
2023-03-26T20:00:35.821Z,2.51
2023-03-26T20:01:35.438Z,2.68
2023-03-26T20:02:35.581Z,2.58
2023-03-26T20:03:37.835Z,2.54
2023-03-26T20:04:35.545Z,2.49
2023-03-26T20:05:35.477Z,2.5
2023-03-26T20:06:43.076Z,2.56
2023-03-26T20:07:39.762Z,2.49
2023-03-26T20:08:39.807Z,2.59
2023-03-26T20:09:40.472Z,2.63
2023-03-26T20:10:40.200Z,2.7
2023-03-26T20:11:40.040Z,2.79
2023-03-26T20:12:39.885Z,2.74
2023-03-26T20:13:39.852Z,2.85
2023-03-26T20:14:39.886Z,2.81
2023-03-26T20:15:40.753Z,2.78
2023-03-26T20:16:41.524Z,2.82
2023-03-26T20:17:40.031Z,2.9
2023-03-26T20:18:39.922Z,2.83
2023-03-26T20:19:40.436Z,2.85
2023-03-26T20:20:40.009Z,2.8
2023-03-26T20:21:40.015Z,2.85
2023-03-26T20:22:40.244Z,2.78
2023-03-26T20:23:40.540Z,2.85
2023-03-26T20:24:40.197Z,2.85
2023-03-26T20:25:43.172Z,2.83
2023-03-26T20:26:40.073Z,3.16
2023-03-26T20:27:40.111Z,2.98
2023-03-26T20:28:48.451Z,2.92
2023-03-26T20:29:45.042Z,2.94
2023-03-26T20:30:45.951Z,3.06
2023-03-26T20:31:45.085Z,3.2
2023-03-26T20:32:45.711Z,3.22
2023-03-26T20:33:45.454Z,3.16
2023-03-26T20:34:45.080Z,3.15
2023-03-26T20:35:45.132Z,3.12
2023-03-26T20:36:45.825Z,3.12
2023-03-26T20:37:45.351Z,3.14
2023-03-26T20:38:45.992Z,3.19
2023-03-26T20:39:45.170Z,3.14
2023-03-26T20:40:45.193Z,3.15
2023-03-26T20:41:47.068Z,3.19
2023-03-26T20:42:45.603Z,3.12
2023-03-26T20:43:45.415Z,3.08
2023-03-26T20:44:45.193Z,3.09
2023-03-26T20:45:45.318Z,3.04
2023-03-26T20:46:46.513Z,3.11
2023-03-26T20:47:45.617Z,3.09
2023-03-26T20:48:45.425Z,3.15
2023-03-26T20:49:45.278Z,3.17
2023-03-26T20:50:50.617Z,3.16
2023-03-26T20:51:47.422Z,3.11
2023-03-26T20:52:47.435Z,3.13
2023-03-26T20:53:47.312Z,3.11
2023-03-26T20:54:47.160Z,3.1
2023-03-26T20:55:47.973Z,3.14
2023-03-26T20:56:47.433Z,3.1
2023-03-26T20:57:47.881Z,3.14
2023-03-26T20:58:49.094Z,3.07
2023-03-26T20:59:47.323Z,3.13
2023-03-26T21:00:48.005Z,3.09
2023-03-26T21:01:48.001Z,3.12
2023-03-26T21:02:47.740Z,3.09
2023-03-26T21:03:47.240Z,3.1
2023-03-26T21:04:47.295Z,3.07
2023-03-26T21:05:47.277Z,3.04
2023-03-26T21:06:47.759Z,3.04
2023-03-26T21:07:47.535Z,3.06
2023-03-26T21:08:47.538Z,3.03
2023-03-26T21:09:47.792Z,3.05
2023-03-26T21:10:47.629Z,3.11
2023-03-26T21:14:59.588Z,3.25
2023-03-26T21:16:00.916Z,3.22
2023-03-26T21:17:00.191Z,3.19
2023-03-26T21:17:59.587Z,3.12
2023-03-26T21:18:59.591Z,3.05
2023-03-26T21:19:59.487Z,2.99
2023-03-26T21:23:15.695Z,2.92
2023-03-26T21:24:24.281Z,2.93
2023-03-26T21:25:29.080Z,2.89
2023-03-26T21:26:28.926Z,2.82
2023-03-26T21:27:30.572Z,2.8
2023-03-26T21:28:41.815Z,2.85